Time;durP1;ratioP1;P1;durP2;ratioP2;P2;SDS_P1;SDS_P2;PMS_P1;PMS_P2;Temp;Humidity;BMP_temperature;BMP_pressure;BME280_temperature;BME280_humidity;BME280_pressure;Samples;Min_cycle;Max_cycle;Signal;HPM_P1;HPM_P2
2022/05/03 00:02:00;;;;;;;6.13;2.70;;;13.60;1.00;;;;;;5096482;28;20455;-59
2022/05/03 00:04:34;;;;;;;3.17;2.27;;;13.40;91.60;;;;;;5098372;28;20506;-60
2022/05/03 00:07:11;;;;;;;4.03;2.63;;;13.40;99.90;;;;;;5098022;28;20799;-59
2022/05/03 00:09:49;;;;;;;2.17;1.73;;;13.40;99.90;;;;;;5097107;28;20452;-59
2022/05/03 00:12:22;;;;;;;3.40;2.93;;;13.40;99.90;;;;;;5096920;28;20459;-59
2022/05/03 00:14:55;;;;;;;3.70;2.50;;;13.40;99.90;;;;;;5097847;28;20441;-59
2022/05/03 00:17:24;;;;;;;3.53;3.20;;;13.50;99.90;;;;;;5096825;28;20442;-60
2022/05/03 00:19:53;;;;;;;3.03;2.70;;;13.50;44.60;;;;;;5097001;28;20544;-60
2022/05/03 00:22:20;;;;;;;3.03;2.20;;;13.50;99.90;;;;;;5096845;28;20461;-59
2022/05/03 00:24:54;;;;;;;2.63;2.40;;;13.50;99.90;;;;;;5097477;28;20441;-59
2022/05/03 00:27:23;;;;;;;3.20;2.90;;;13.40;99.90;;;;;;5097677;28;20525;-60
2022/05/03 00:29:51;;;;;;;2.73;2.33;;;13.40;99.90;;;;;;5097493;28;20909;-59
2022/05/03 00:32:18;;;;;;;3.00;2.70;;;13.40;99.90;;;;;;5097640;28;20480;-59
2022/05/03 00:34:45;;;;;;;4.43;2.77;;;13.30;99.90;;;;;;5096202;28;20472;-59
2022/05/03 00:37:12;;;;;;;4.50;2.77;;;13.30;99.90;;;;;;5095475;28;20449;-60
2022/05/03 00:39:39;;;;;;;4.37;3.10;;;13.40;99.90;;;;;;5095991;28;20445;-60
2022/05/03 00:42:16;;;;;;;3.17;2.87;;;13.20;99.90;;;;;;5096742;28;20810;-59
2022/05/03 00:44:58;;;;;;;2.33;2.13;;;13.10;99.90;;;;;;5097242;28;20437;-60
2022/05/03 00:47:34;;;;;;;4.57;2.53;;;13.10;99.90;;;;;;5098113;28;20977;-60
2022/05/03 00:50:05;;;;;;;2.53;2.33;;;13.00;1.00;;;;;;5098046;28;20806;-59
2022/05/03 00:52:38;;;;;;;4.00;2.10;;;12.90;1.00;;;;;;5097893;28;20465;-59
2022/05/03 00:55:30;;;;;;;2.50;2.07;;;12.80;1.00;;;;;;5097961;28;20446;-59
2022/05/03 00:58:19;;;;;;;4.23;3.10;;;12.70;1.00;;;;;;5097864;28;20730;-61
2022/05/03 01:00:57;;;;;;;3.10;1.80;;;12.70;1.00;;;;;;5101769;28;20735;-60
2022/05/03 01:03:31;;;;;;;3.23;2.07;;;12.70;1.00;;;;;;5117827;28;20448;-60
2022/05/03 01:06:13;;;;;;;2.83;1.80;;;12.70;1.00;;;;;;5118649;28;20491;-59
2022/05/03 01:09:03;;;;;;;3.20;2.50;;;12.70;1.00;;;;;;5118295;28;20783;-59
2022/05/03 01:11:35;;;;;;;3.63;3.00;;;12.70;1.00;;;;;;5117576;28;20498;-60
2022/05/03 01:14:13;;;;;;;2.63;1.93;;;12.70;1.00;;;;;;5116674;28;20742;-59
2022/05/03 01:16:46;;;;;;;2.80;2.50;;;12.70;1.00;;;;;;5116527;28;20906;-60
2022/05/03 01:19:33;;;;;;;4.20;2.20;;;12.80;1.00;;;;;;5116009;28;20482;-59
2022/05/03 01:22:09;;;;;;;2.67;2.10;;;12.80;1.00;;;;;;5117103;28;20456;-59
2022/05/03 01:25:03;;;;;;;3.97;2.53;;;12.80;1.00;;;;;;5117576;28;20516;-59
2022/05/03 01:27:52;;;;;;;4.47;2.93;;;12.90;1.00;;;;;;5117306;28;20491;-59
2022/05/03 01:30:21;;;;;;;4.33;3.13;;;12.80;1.00;;;;;;5116613;28;20482;-59
2022/05/03 01:32:50;;;;;;;5.23;2.93;;;12.80;1.00;;;;;;5117646;28;20440;-59
2022/05/03 01:35:21;;;;;;;3.17;2.57;;;12.80;1.00;;;;;;5117167;28;20441;-60
2022/05/03 01:38:11;;;;;;;2.93;2.70;;;12.80;1.00;;;;;;5117264;28;20441;-59
2022/05/03 01:41:04;;;;;;;2.37;1.80;;;12.70;1.00;;;;;;5117194;28;20760;-59
2022/05/03 01:43:47;;;;;;;2.97;2.60;;;12.70;1.00;;;;;;5117315;28;20497;-60
2022/05/03 01:46:22;;;;;;;3.10;2.20;;;12.60;1.00;;;;;;5116763;28;20484;-60
2022/05/03 01:51:47;;;;;;;4.00;2.47;;;12.40;1.00;;;;;;5116995;28;20516;-60
2022/05/03 01:54:36;;;;;;;2.23;2.03;;;12.40;1.00;;;;;;5116861;28;20479;-59
2022/05/03 01:57:09;;;;;;;2.53;2.10;;;12.40;1.00;;;;;;5116969;28;20456;-59
2022/05/03 01:59:48;;;;;;;2.40;2.20;;;12.30;1.00;;;;;;5115877;28;20729;-59
2022/05/03 02:02:27;;;;;;;3.80;3.00;;;12.20;1.00;;;;;;5113980;28;20543;-59
2022/05/03 02:05:04;;;;;;;4.70;2.67;;;12.20;1.00;;;;;;5114185;28;20440;-57
2022/05/03 02:07:52;;;;;;;3.43;3.00;;;12.20;1.00;;;;;;5114311;28;21104;-59
2022/05/03 02:10:35;;;;;;;3.17;2.70;;;12.20;1.00;;;;;;5114960;28;20444;-58
2022/05/03 02:13:12;;;;;;;3.10;2.10;;;12.10;1.00;;;;;;5114493;28;20460;-59
2022/05/03 02:15:41;;;;;;;3.40;2.97;;;11.80;1.00;;;;;;5114924;28;20448;-59
2022/05/03 02:18:21;;;;;;;4.53;3.60;;;11.80;1.00;;;;;;5116338;28;20534;-58
2022/05/03 02:21:05;;;;;;;4.73;3.37;;;11.70;1.00;;;;;;5116581;28;20448;-59
2022/05/03 02:23:42;;;;;;;4.40;2.43;;;11.70;1.00;;;;;;5115886;28;20540;-58
2022/05/03 02:26:30;;;;;;;7.07;3.00;;;11.70;1.00;;;;;;5116989;28;20562;-59
2022/05/03 02:29:04;;;;;;;3.80;3.13;;;11.70;1.00;;;;;;5116411;28;20547;-60
2022/05/03 02:31:43;;;;;;;3.90;3.00;;;11.70;1.00;;;;;;5115637;28;20495;-59
2022/05/03 02:34:25;;;;;;;4.37;2.73;;;11.60;1.00;;;;;;5115909;28;20459;-59
2022/05/03 02:36:56;;;;;;;6.07;3.00;;;11.70;1.00;;;;;;5116733;28;20935;-59
2022/05/03 02:39:29;;;;;;;4.37;3.97;;;11.90;1.00;;;;;;5116331;28;20448;-59
2022/05/03 02:41:59;;;;;;;4.07;2.93;;;11.90;1.00;;;;;;5115539;28;20445;-60
2022/05/03 02:44:29;;;;;;;4.23;3.43;;;11.90;1.00;;;;;;5115227;28;20448;-59
2022/05/03 02:47:05;;;;;;;4.60;3.57;;;11.90;1.00;;;;;;5115602;28;20487;-59
2022/05/03 02:49:50;;;;;;;2.47;2.27;;;11.80;1.00;;;;;;5115599;28;20463;-60
2022/05/03 02:52:28;;;;;;;3.70;3.37;;;11.80;1.00;;;;;;5114984;28;20445;-60
2022/05/03 02:55:04;;;;;;;6.07;3.17;;;11.80;1.00;;;;;;5115695;28;20450;-60
2022/05/03 02:57:41;;;;;;;4.07;2.77;;;11.80;1.00;;;;;;5120043;28;20882;-60
2022/05/03 03:03:37;;;;;;;3.60;3.10;;;11.80;1.00;;;;;;5119966;28;20420;-60
2022/05/03 03:06:08;;;;;;;3.80;3.47;;;11.80;1.00;;;;;;5056969;28;20918;-60
2022/05/03 03:08:42;;;;;;;4.17;2.77;;;11.80;1.00;;;;;;5112264;28;20887;-59
2022/05/03 03:11:17;;;;;;;5.50;5.00;;;11.80;1.00;;;;;;5120122;28;20729;-59
2022/05/03 03:14:01;;;;;;;4.53;3.67;;;11.80;1.00;;;;;;5119781;28;20447;-59
2022/05/03 03:16:32;;;;;;;5.50;3.47;;;11.70;1.00;;;;;;5119589;28;20444;-60
2022/05/03 03:19:00;;;;;;;4.80;3.60;;;11.70;1.00;;;;;;5118712;28;20479;-59
2022/05/03 03:21:32;;;;;;;5.07;4.20;;;11.70;1.00;;;;;;5119790;28;20475;-59
2022/05/03 03:24:05;;;;;;;4.77;3.57;;;11.60;1.00;;;;;;5120063;28;20453;-59
2022/05/03 03:26:33;;;;;;;3.43;3.03;;;11.60;1.00;;;;;;5119691;28;20484;-59
2022/05/03 03:29:01;;;;;;;4.10;3.50;;;11.60;1.00;;;;;;5119480;28;20448;-59
2022/05/03 03:31:31;;;;;;;5.67;4.30;;;11.60;1.00;;;;;;5119968;28;20454;-59
2022/05/03 03:33:59;;;;;;;4.33;3.50;;;11.60;1.00;;;;;;5119754;28;20547;-59
2022/05/03 03:36:29;;;;;;;6.13;4.70;;;11.70;1.00;;;;;;5119747;28;20447;-59
2022/05/03 03:38:56;;;;;;;5.53;3.90;;;11.60;1.00;;;;;;5119879;28;20453;-59
2022/05/03 03:41:24;;;;;;;5.30;4.23;;;11.50;1.00;;;;;;5120001;28;20440;-59
2022/05/03 03:43:52;;;;;;;7.70;4.37;;;11.60;1.00;;;;;;5118246;28;20459;-60
2022/05/03 03:46:19;;;;;;;4.60;4.20;;;11.40;1.00;;;;;;5118938;28;20448;-58
2022/05/03 03:48:46;;;;;;;5.47;4.60;;;11.30;1.00;;;;;;5119448;28;20539;-58
2022/05/03 03:51:15;;;;;;;4.23;3.77;;;11.20;1.00;;;;;;5119094;28;20448;-57
2022/05/03 03:53:44;;;;;;;5.17;3.73;;;11.10;1.00;;;;;;5118580;28;20453;-58
2022/05/03 03:56:11;;;;;;;5.87;4.47;;;11.10;8.90;;;;;;5118309;28;20547;-56
2022/05/03 03:58:38;;;;;;;6.53;3.93;;;11.10;12.50;;;;;;5119232;28;20448;-58
2022/05/03 04:01:05;;;;;;;5.43;4.67;;;11.20;8.60;;;;;;5119754;28;20447;-58
2022/05/03 04:03:34;;;;;;;4.40;3.63;;;11.20;5.20;;;;;;5119101;28;20550;-57
2022/05/03 04:06:00;;;;;;;6.10;5.20;;;11.20;6.00;;;;;;5118249;28;20446;-59
2022/05/03 04:08:28;;;;;;;3.90;2.77;;;11.30;2.50;;;;;;5117363;28;20649;-57
2022/05/03 04:10:56;;;;;;;8.40;6.13;;;11.30;8.80;;;;;;5119094;28;20543;-58
2022/05/03 04:13:23;;;;;;;6.67;4.60;;;11.40;2.30;;;;;;5118605;28;20452;-58
2022/05/03 04:15:51;;;;;;;7.17;6.27;;;11.40;1.00;;;;;;5118742;28;20868;-58
2022/05/03 04:18:18;;;;;;;5.40;4.50;;;11.40;1.00;;;;;;5118188;28;20481;-58
2022/05/03 04:20:45;;;;;;;5.30;4.77;;;11.30;8.10;;;;;;5118641;28;20445;-58
2022/05/03 04:23:21;;;;;;;6.03;5.33;;;11.30;10.20;;;;;;5118538;28;20452;-58
2022/05/03 04:25:48;;;;;;;8.53;5.60;;;11.30;9.50;;;;;;5118034;28;20455;-58
2022/05/03 04:28:16;;;;;;;5.37;3.90;;;11.30;1.00;;;;;;5117946;28;20491;-57
2022/05/03 04:30:43;;;;;;;5.33;4.83;;;11.30;1.00;;;;;;5118170;28;20973;-58
2022/05/03 04:33:10;;;;;;;7.20;5.67;;;11.30;1.00;;;;;;5118109;28;20443;-58
2022/05/03 04:35:37;;;;;;;6.60;5.43;;;11.30;1.00;;;;;;5118765;28;20480;-58
2022/05/03 04:38:04;;;;;;;7.10;5.10;;;11.30;12.20;;;;;;5118481;28;20444;-57
2022/05/03 04:40:30;;;;;;;7.40;5.53;;;11.40;10.20;;;;;;5118175;28;20455;-59
2022/05/03 04:42:57;;;;;;;6.70;4.37;;;11.30;1.00;;;;;;5118247;28;20714;-59
2022/05/03 04:45:25;;;;;;;6.83;4.70;;;11.40;1.00;;;;;;5118014;28;20453;-58
2022/05/03 04:47:52;;;;;;;8.60;5.90;;;11.40;1.00;;;;;;5117800;28;20783;-59
2022/05/03 04:50:19;;;;;;;6.60;5.23;;;11.40;1.00;;;;;;5116733;28;20449;-57
2022/05/03 04:52:46;;;;;;;5.40;4.90;;;11.40;1.00;;;;;;5117313;28;20453;-56
2022/05/03 04:55:13;;;;;;;6.20;5.10;;;11.30;1.00;;;;;;5116882;28;20455;-57
2022/05/03 04:57:40;;;;;;;5.70;5.20;;;11.40;1.00;;;;;;5116745;28;20441;-58
2022/05/03 05:00:08;;;;;;;9.23;6.80;;;11.50;1.00;;;;;;5116229;28;20705;-58
2022/05/03 05:02:37;;;;;;;5.20;4.60;;;11.60;1.00;;;;;;5116757;28;20451;-59
2022/05/03 05:05:04;;;;;;;5.30;4.67;;;11.70;1.00;;;;;;5116337;28;20899;-58
2022/05/03 05:07:31;;;;;;;5.20;4.70;;;11.90;1.00;;;;;;5115714;28;20484;-59
2022/05/03 05:12:42;;;;;;;7.10;6.10;;;12.10;1.00;;;;;;5115893;28;20429;-59
2022/05/03 05:15:10;;;;;;;6.37;5.20;;;12.10;1.00;;;;;;5115357;28;20448;-58
2022/05/03 05:17:38;;;;;;;6.60;5.30;;;12.00;1.00;;;;;;5115101;28;20469;-59
2022/05/03 05:20:06;;;;;;;9.83;5.50;;;12.00;1.00;;;;;;5114972;28;20449;-58
2022/05/03 05:22:33;;;;;;;6.70;6.00;;;12.00;1.00;;;;;;5114741;28;21004;-58
2022/05/03 05:25:00;;;;;;;7.50;6.17;;;12.00;1.00;;;;;;5115469;28;20557;-58
2022/05/03 05:27:27;;;;;;;6.30;5.70;;;12.00;1.00;;;;;;5114885;28;20483;-57
2022/05/03 05:29:54;;;;;;;6.33;4.70;;;11.90;1.00;;;;;;5113814;28;20457;-59
2022/05/03 05:32:21;;;;;;;7.00;6.10;;;11.80;1.00;;;;;;5113610;28;20532;-58
2022/05/03 05:34:49;;;;;;;6.07;5.57;;;12.00;1.00;;;;;;5113584;28;20459;-58
2022/05/03 05:37:16;;;;;;;5.67;4.83;;;12.30;1.00;;;;;;5114085;28;20455;-58
2022/05/03 05:39:44;;;;;;;6.70;4.40;;;12.40;1.00;;;;;;5113837;28;20459;-58
2022/05/03 05:42:11;;;;;;;4.83;4.30;;;12.50;1.00;;;;;;5114293;28;20451;-58
2022/05/03 05:44:38;;;;;;;7.20;4.97;;;12.70;1.00;;;;;;5112811;28;20452;-58
2022/05/03 05:47:06;;;;;;;8.10;4.43;;;12.80;1.00;;;;;;5112011;28;20486;-58
2022/05/03 05:49:32;;;;;;;8.10;6.40;;;12.80;1.00;;;;;;5113684;28;20749;-59
2022/05/03 05:54:41;;;;;;;6.90;4.63;;;12.90;1.00;;;;;;5112514;28;20468;-58
2022/05/03 05:57:08;;;;;;;7.83;6.60;;;12.90;1.00;;;;;;5113222;28;20444;-58
2022/05/03 05:59:35;;;;;;;7.30;6.43;;;12.90;1.00;;;;;;5112341;28;20445;-59
2022/05/03 06:02:02;;;;;;;9.17;7.40;;;12.90;1.00;;;;;;5110947;28;20441;-59
2022/05/03 06:04:29;;;;;;;8.57;6.60;;;12.80;1.00;;;;;;5109800;28;20443;-59
2022/05/03 06:06:56;;;;;;;7.20;6.50;;;12.70;1.00;;;;;;5121252;27;20443;-60
2022/05/03 06:09:25;;;;;;;6.30;5.57;;;12.70;1.00;;;;;;5132338;27;20439;-60
2022/05/03 06:11:51;;;;;;;7.33;6.03;;;12.70;1.00;;;;;;5131251;27;20436;-60
2022/05/03 06:14:18;;;;;;;10.27;8.00;;;13.00;1.00;;;;;;5130580;27;20752;-60
2022/05/03 06:16:49;;;;;;;9.50;7.60;;;13.10;1.00;;;;;;5134256;27;20435;-59
2022/05/03 06:19:16;;;;;;;10.83;8.73;;;13.10;1.00;;;;;;5134484;27;20464;-60
2022/05/03 06:21:42;;;;;;;8.27;6.17;;;13.20;1.00;;;;;;5134916;27;20448;-61
2022/05/03 06:24:09;;;;;;;15.30;8.33;;;13.30;1.00;;;;;;5132264;27;20810;-60
2022/05/03 06:26:38;;;;;;;9.80;8.80;;;13.50;1.00;;;;;;5133723;28;20444;-59
2022/05/03 06:29:06;;;;;;;7.93;6.50;;;13.50;1.00;;;;;;5132315;28;20256;-60
2022/05/03 06:31:34;;;;;;;6.73;6.07;;;13.50;1.00;;;;;;5126910;27;20817;-61
2022/05/03 06:34:01;;;;;;;11.77;9.10;;;13.80;1.00;;;;;;5132975;27;20813;-61
2022/05/03 06:36:28;;;;;;;9.13;7.90;;;13.90;99.90;;;;;;5130374;27;20455;-60
2022/05/03 06:38:55;;;;;;;8.73;7.77;;;14.00;99.90;;;;;;5132526;27;20438;-60
2022/05/03 06:41:23;;;;;;;6.80;5.20;;;14.20;99.90;;;;;;5132929;28;20458;-61
2022/05/03 06:43:51;;;;;;;8.67;7.77;;;14.30;1.00;;;;;;5131655;28;20497;-61
2022/05/03 06:46:18;;;;;;;8.90;7.53;;;14.40;99.90;;;;;;5132369;27;20462;-61
2022/05/03 06:48:45;;;;;;;8.77;6.57;;;14.30;99.90;;;;;;5133547;27;20490;-61
2022/05/03 06:51:11;;;;;;;10.63;7.87;;;14.30;1.00;;;;;;5133135;28;20765;-61
2022/05/03 06:53:38;;;;;;;8.10;6.37;;;14.50;1.00;;;;;;5131584;28;20446;-62
2022/05/03 06:56:06;;;;;;;8.97;7.63;;;14.60;1.00;;;;;;5132143;27;20554;-54
2022/05/03 06:58:33;;;;;;;9.77;8.63;;;14.70;1.00;;;;;;5131377;27;20497;-52
2022/05/03 07:01:07;;;;;;;8.18;7.47;;;14.80;1.00;;;;;;5128468;27;20444;-55
2022/05/03 07:03:34;;;;;;;9.57;6.67;;;14.80;99.90;;;;;;5131734;28;20205;-60
2022/05/03 07:06:02;;;;;;;8.00;6.70;;;14.90;99.90;;;;;;5129959;28;20477;-59
2022/05/03 07:08:29;;;;;;;6.40;5.77;;;15.00;99.90;;;;;;5131268;28;20562;-60
2022/05/03 07:10:55;;;;;;;8.97;6.43;;;15.20;1.00;;;;;;5131410;28;20448;-60
2022/05/03 07:13:24;;;;;;;6.43;5.83;;;15.40;1.00;;;;;;5134097;27;20461;-60
2022/05/03 07:15:52;;;;;;;6.13;4.73;;;15.50;28.40;;;;;;5133892;27;20732;-60
2022/05/03 07:23:51;;;;;;;6.20;4.23;;;15.70;1.00;;;;;;5092747;28;20413;-61
2022/05/03 07:26:18;;;;;;;6.60;6.00;;;15.80;99.90;;;;;;5111678;28;20884;-60
2022/05/03 07:28:48;;;;;;;5.03;4.53;;;16.00;99.90;;;;;;5111941;28;20575;-60
2022/05/03 07:31:16;;;;;;;7.27;5.10;;;16.00;99.90;;;;;;5112949;28;20460;-61
2022/05/03 07:33:44;;;;;;;7.27;5.27;;;16.20;1.00;;;;;;5113529;28;20439;-61
2022/05/03 07:36:11;;;;;;;5.30;4.43;;;16.20;1.00;;;;;;5111745;28;20451;-60
2022/05/03 07:38:38;;;;;;;6.07;5.13;;;16.30;1.00;;;;;;5112229;28;20634;-60
2022/05/03 07:41:05;;;;;;;6.50;5.50;;;16.30;1.00;;;;;;5109520;28;20448;-59
2022/05/03 07:43:32;;;;;;;10.40;4.90;;;16.40;1.00;;;;;;5116561;27;20505;-60
2022/05/03 07:45:59;;;;;;;5.63;3.97;;;16.40;1.00;;;;;;5117647;28;20483;-60
2022/05/03 07:48:26;;;;;;;7.20;5.57;;;16.40;1.00;;;;;;5115830;28;20483;-60
2022/05/03 07:50:54;;;;;;;7.93;3.10;;;16.50;1.00;;;;;;5116737;28;20836;-58
2022/05/03 07:53:22;;;;;;;4.53;3.80;;;16.50;1.00;;;;;;5116363;28;20451;-59
2022/05/03 07:55:50;;;;;;;3.63;3.33;;;16.50;1.00;;;;;;5114657;28;20457;-58
2022/05/03 07:58:18;;;;;;;4.50;3.53;;;16.50;99.90;;;;;;5114510;28;20447;-59
2022/05/03 08:00:48;;;;;;;4.20;3.80;;;16.60;99.90;;;;;;5114202;28;20445;-60
2022/05/03 08:03:16;;;;;;;3.63;2.70;;;16.60;99.90;;;;;;5113382;28;20479;-59
2022/05/03 08:05:43;;;;;;;3.03;2.83;;;16.70;99.90;;;;;;5114085;28;20872;-60
2022/05/03 08:08:15;;;;;;;4.57;2.80;;;16.80;99.90;;;;;;5114277;28;20777;-60
2022/05/03 08:10:42;;;;;;;2.40;2.20;;;16.90;99.90;;;;;;5115735;28;20475;-59
2022/05/03 08:13:09;;;;;;;12.53;9.13;;;17.10;99.90;;;;;;5114523;28;20903;-60
2022/05/03 08:15:36;;;;;;;3.33;3.00;;;17.10;99.90;;;;;;5110833;28;20972;-59
2022/05/03 08:18:04;;;;;;;4.33;2.53;;;17.10;99.90;;;;;;5113592;27;20488;-59
2022/05/03 08:20:31;;;;;;;4.53;2.33;;;17.00;99.90;;;;;;5113530;27;20490;-58
2022/05/03 08:22:58;;;;;;;2.53;1.83;;;17.00;99.90;;;;;;5119062;27;20552;-58
2022/05/03 08:25:26;;;;;;;2.00;1.80;;;17.10;99.90;;;;;;5116778;27;20447;-58
2022/05/03 08:27:53;;;;;;;3.10;1.87;;;17.20;14.90;;;;;;5128638;27;20447;-58
2022/05/03 08:30:20;;;;;;;1.70;1.30;;;17.20;1.00;;;;;;5134501;27;20570;-58
2022/05/03 08:32:47;;;;;;;2.30;1.83;;;17.30;1.00;;;;;;5127187;27;20500;-58
2022/05/03 08:35:14;;;;;;;5.07;1.90;;;17.40;1.00;;;;;;5131347;27;20453;-58
2022/05/03 08:43:12;;;;;;;11.50;9.17;;;17.80;1.00;;;;;;5094167;28;20759;-59
2022/05/03 08:45:40;;;;;;;3.23;1.20;;;17.80;1.00;;;;;;5109663;27;20480;-58
2022/05/03 08:48:08;;;;;;;1.30;0.97;;;18.10;1.00;;;;;;5108106;27;20533;-59
2022/05/03 08:50:36;;;;;;;1.43;1.20;;;18.30;1.00;;;;;;5122299;27;20457;-58
2022/05/03 08:53:06;;;;;;;2.60;1.40;;;18.50;1.00;;;;;;5107776;27;20455;-59
2022/05/03 08:55:41;;;;;;;2.80;1.70;;;18.50;1.00;;;;;;5109185;27;20539;-59
2022/05/03 08:58:08;;;;;;;2.20;1.60;;;18.50;1.00;;;;;;5112303;28;20456;-59
2022/05/03 09:00:37;;;;;;;3.80;1.50;;;18.50;1.00;;;;;;5130532;27;20535;-59
2022/05/03 09:03:05;;;;;;;1.93;1.13;;;18.50;1.00;;;;;;5095651;27;20449;-59
2022/05/03 09:05:32;;;;;;;1.37;1.10;;;18.60;1.00;;;;;;5134794;27;20940;-59
2022/05/03 09:08:01;;;;;;;4.30;1.70;;;18.70;1.00;;;;;;5116443;27;20886;-61
2022/05/03 09:10:32;;;;;;;1.77;1.20;;;18.90;1.00;;;;;;5108388;28;20527;-61
2022/05/03 09:13:14;;;;;;;1.23;1.00;;;19.20;1.00;;;;;;5118802;27;20533;-60
2022/05/03 09:15:41;;;;;;;1.47;1.23;;;19.30;1.00;;;;;;5118790;27;20446;-60
2022/05/03 09:18:19;;;;;;;1.40;1.13;;;19.40;1.00;;;;;;5121521;27;20598;-60
2022/05/03 09:23:49;;;;;;;3.00;1.30;;;19.80;1.00;;;;;;5097385;28;20464;-60
2022/05/03 09:26:18;;;;;;;1.20;1.10;;;19.90;1.00;;;;;;5092756;28;20446;-64
2022/05/03 09:28:49;;;;;;;1.40;1.10;;;20.20;1.00;;;;;;5093144;28;20488;-59
2022/05/03 09:31:28;;;;;;;1.80;1.20;;;20.00;1.00;;;;;;5094954;28;20464;-58
2022/05/03 09:33:55;;;;;;;3.70;1.30;;;20.30;1.00;;;;;;5091321;28;20461;-61
2022/05/03 09:36:22;;;;;;;1.43;1.00;;;20.70;1.00;;;;;;5109678;27;20448;-59
2022/05/03 09:38:52;;;;;;;1.37;1.03;;;20.30;1.00;;;;;;5133455;27;20543;-59
2022/05/03 09:41:19;;;;;;;1.97;0.80;;;20.30;1.00;;;;;;5122580;27;20447;-63
2022/05/03 09:44:06;;;;;;;1.43;1.10;;;20.20;1.00;;;;;;5111489;28;20814;-59
2022/05/03 09:46:51;;;;;;;1.80;0.97;;;20.10;1.00;;;;;;5113877;28;20501;-59
2022/05/03 09:49:20;;;;;;;1.40;0.90;;;20.30;1.00;;;;;;5114461;28;20483;-60
2022/05/03 09:51:48;;;;;;;1.37;1.03;;;20.30;1.00;;;;;;5114359;28;20456;-59
2022/05/03 09:54:16;;;;;;;1.47;1.00;;;20.40;1.00;;;;;;5095574;28;20453;-60
2022/05/03 09:56:48;;;;;;;2.70;1.17;;;20.10;1.00;;;;;;5092683;28;20887;-59
2022/05/03 09:59:18;;;;;;;1.30;1.00;;;20.00;1.00;;;;;;5091805;28;20437;-60
2022/05/03 10:01:46;;;;;;;2.53;1.00;;;19.90;1.00;;;;;;5105727;28;20472;-60
2022/05/03 10:04:14;;;;;;;1.60;1.03;;;19.80;1.00;;;;;;5105334;27;20515;-60
2022/05/03 10:06:41;;;;;;;1.47;0.90;;;20.00;1.00;;;;;;5133202;27;20436;-60
2022/05/03 10:09:08;;;;;;;1.57;1.00;;;20.20;1.00;;;;;;5132621;27;20572;-60
2022/05/03 10:11:40;;;;;;;1.30;1.00;;;20.60;1.00;;;;;;5132847;27;20452;-61
2022/05/03 10:14:08;;;;;;;1.60;0.80;;;20.80;1.00;;;;;;5097397;27;20499;-61
2022/05/03 10:22:07;;;;;;;1.30;0.93;;;21.40;1.00;;;;;;5132438;27;20465;-61
2022/05/03 10:24:55;;;;;;;1.23;0.80;;;21.60;1.00;;;;;;5131931;27;20451;-61
2022/05/03 10:27:28;;;;;;;1.00;0.90;;;21.80;1.00;;;;;;5132088;27;20448;-61
2022/05/03 10:30:18;;;;;;;1.00;0.80;;;22.00;1.00;;;;;;5131468;28;20475;-60
2022/05/03 10:33:06;;;;;;;1.10;0.80;;;22.10;1.00;;;;;;5128112;28;20455;-60
2022/05/03 10:35:34;;;;;;;1.27;0.90;;;22.50;1.00;;;;;;5133904;28;20447;-60
2022/05/03 10:38:07;;;;;;;2.00;1.00;;;22.60;1.00;;;;;;5133373;28;21053;-59
2022/05/03 10:40:39;;;;;;;1.77;0.90;;;22.70;1.00;;;;;;5132248;28;20447;-60
2022/05/03 10:43:10;;;;;;;1.57;1.07;;;22.90;1.00;;;;;;5132419;28;20458;-59
2022/05/03 10:45:54;;;;;;;1.50;1.20;;;23.10;1.00;;;;;;5132359;28;20443;-60
2022/05/03 10:48:27;;;;;;;1.00;0.80;;;23.40;1.00;;;;;;5131280;28;20436;-60
2022/05/03 10:50:58;;;;;;;1.00;0.90;;;23.10;1.00;;;;;;5130662;28;20745;-59
2022/05/03 10:53:30;;;;;;;1.37;1.00;;;22.70;1.00;;;;;;5131245;28;20501;-59
2022/05/03 10:56:16;;;;;;;1.30;1.00;;;22.90;1.00;;;;;;5132031;28;20447;-59
2022/05/03 10:58:45;;;;;;;3.30;0.90;;;23.20;1.00;;;;;;5131117;28;20480;-60
2022/05/03 11:01:17;;;;;;;1.40;1.00;;;23.50;1.00;;;;;;5124248;27;20715;-62
2022/05/03 11:04:10;;;;;;;1.10;0.87;;;23.80;1.00;;;;;;5131680;27;20808;-60
2022/05/03 11:06:41;;;;;;;2.17;0.83;;;24.40;1.00;;;;;;5134358;27;21112;-61
2022/05/03 11:09:10;;;;;;;1.10;0.90;;;24.70;1.00;;;;;;5133333;27;20449;-59
2022/05/03 11:11:53;;;;;;;1.13;1.00;;;24.40;1.00;;;;;;5132156;27;20194;-58
2022/05/03 11:14:49;;;;;;;1.20;1.03;;;24.50;1.00;;;;;;5124240;27;20457;-58
2022/05/03 11:17:17;;;;;;;1.40;0.90;;;24.70;1.00;;;;;;5110729;28;20482;-59
2022/05/03 11:19:55;;;;;;;1.93;0.93;;;24.90;1.00;;;;;;5115298;28;20441;-59
2022/05/03 11:22:24;;;;;;;0.90;0.80;;;25.20;1.00;;;;;;5113992;28;20456;-59
2022/05/03 11:24:52;;;;;;;1.43;1.00;;;25.50;1.00;;;;;;5127069;27;20962;-59
2022/05/03 11:27:21;;;;;;;1.20;1.00;;;25.50;1.00;;;;;;5135652;27;20553;-58
2022/05/03 11:29:49;;;;;;;2.60;0.80;;;25.60;1.00;;;;;;5134919;27;20482;-58
2022/05/03 11:32:17;;;;;;;1.30;1.03;;;25.70;1.00;;;;;;5135742;27;20444;-58
2022/05/03 11:34:45;;;;;;;2.20;1.00;;;25.60;1.00;;;;;;5136713;27;20444;-58
2022/05/03 11:37:14;;;;;;;1.37;0.80;;;25.50;1.00;;;;;;5137985;27;20465;-58
2022/05/03 11:39:41;;;;;;;1.10;1.00;;;25.70;1.00;;;;;;5138470;27;20774;-58
2022/05/03 11:42:11;;;;;;;2.77;2.50;;;25.70;1.00;;;;;;5135328;27;20448;-58
2022/05/03 11:44:44;;;;;;;1.37;0.90;;;25.50;1.00;;;;;;5136810;27;20448;-58
2022/05/03 11:47:11;;;;;;;1.00;0.80;;;25.20;1.00;;;;;;5137423;27;20456;-58
2022/05/03 11:49:38;;;;;;;1.10;1.00;;;25.20;1.00;;;;;;5136130;27;20503;-59
2022/05/03 11:57:40;;;;;;;1.10;0.80;;;25.60;1.00;;;;;;5137083;27;20427;-57
2022/05/03 12:00:10;;;;;;;0.90;0.80;;;25.60;1.00;;;;;;5137726;27;20496;-58
2022/05/03 12:02:38;;;;;;;1.00;0.90;;;26.10;1.00;;;;;;5136217;27;20432;-60
2022/05/03 12:05:17;;;;;;;0.90;0.73;;;26.00;1.00;;;;;;5135746;27;20450;-60
2022/05/03 12:07:46;;;;;;;1.00;0.90;;;26.00;1.00;;;;;;5137363;27;20475;-62
2022/05/03 12:10:20;;;;;;;1.60;0.90;;;26.00;1.00;;;;;;5138354;27;20479;-60
2022/05/03 12:12:48;;;;;;;1.43;1.20;;;25.60;1.00;;;;;;5137502;27;20525;-61
2022/05/03 12:15:19;;;;;;;1.10;1.00;;;24.60;1.00;;;;;;5137246;27;20823;-61
2022/05/03 12:17:59;;;;;;;1.33;1.20;;;24.30;1.00;;;;;;5137103;27;20480;-61
2022/05/03 12:20:28;;;;;;;1.93;1.10;;;24.50;1.00;;;;;;5138247;27;20862;-61
2022/05/03 12:23:12;;;;;;;2.13;1.30;;;24.70;1.00;;;;;;5135664;27;20448;-61
2022/05/03 12:25:42;;;;;;;1.87;1.20;;;24.50;1.00;;;;;;5137279;27;20748;-61
2022/05/03 12:28:09;;;;;;;1.47;1.03;;;24.90;1.00;;;;;;5136009;27;20444;-62
2022/05/03 12:30:36;;;;;;;2.07;1.30;;;25.00;1.00;;;;;;5136396;27;20509;-60
2022/05/03 12:33:05;;;;;;;1.30;1.00;;;24.20;1.00;;;;;;5137170;27;20443;-61
2022/05/03 12:35:35;;;;;;;1.67;0.97;;;24.60;1.00;;;;;;5136186;27;20452;-61
2022/05/03 12:38:10;;;;;;;2.37;0.93;;;24.80;1.00;;;;;;5136406;27;20950;-61
2022/05/03 12:40:49;;;;;;;1.10;0.80;;;25.20;1.00;;;;;;5136290;27;20486;-60
2022/05/03 12:43:18;;;;;;;1.40;1.00;;;25.20;1.00;;;;;;5136055;27;20449;-60
2022/05/03 12:45:57;;;;;;;1.40;1.00;;;25.80;1.00;;;;;;5135953;27;20482;-60
2022/05/03 12:48:24;;;;;;;1.37;0.97;;;25.50;1.00;;;;;;5136763;27;20752;-61
2022/05/03 12:50:51;;;;;;;1.10;0.90;;;25.10;1.00;;;;;;5132175;27;20481;-61
2022/05/03 12:53:24;;;;;;;1.63;0.90;;;24.80;1.00;;;;;;5136018;27;20440;-61
2022/05/03 12:55:53;;;;;;;1.20;1.00;;;24.30;1.00;;;;;;5134118;27;20473;-62
2022/05/03 12:58:22;;;;;;;1.13;0.87;;;23.70;1.00;;;;;;5135396;27;20443;-60
2022/05/03 13:00:49;;;;;;;0.90;0.70;;;22.70;1.00;;;;;;5134264;27;20440;-60
2022/05/03 13:03:16;;;;;;;0.90;0.80;;;21.50;1.00;;;;;;5135156;27;20535;-60
2022/05/03 13:05:43;;;;;;;0.93;0.60;;;20.50;1.00;;;;;;5134491;27;20447;-60
2022/05/03 13:08:10;;;;;;;1.00;0.70;;;19.60;1.00;;;;;;5135412;27;20542;-59
2022/05/03 13:10:38;;;;;;;1.00;0.70;;;19.10;1.00;;;;;;5135475;27;20482;-60
2022/05/03 13:13:07;;;;;;;4.80;0.60;;;18.60;1.00;;;;;;5132889;27;20470;-59
2022/05/03 13:15:34;;;;;;;1.03;0.70;;;18.20;1.00;;;;;;5132333;27;20474;-61
2022/05/03 13:18:01;;;;;;;0.90;0.70;;;17.80;1.00;;;;;;5133529;27;20499;-61
2022/05/03 13:20:28;;;;;;;0.87;0.80;;;17.60;1.00;;;;;;5133463;27;20584;-61
2022/05/03 13:22:55;;;;;;;1.13;0.70;;;17.40;99.90;;;;;;5134749;27;20443;-60
2022/05/03 13:25:23;;;;;;;1.20;0.80;;;17.20;99.90;;;;;;5134663;27;20450;-60
2022/05/03 13:27:51;;;;;;;1.10;0.87;;;16.80;99.90;;;;;;5134116;27;21086;-59
2022/05/03 13:30:19;;;;;;;1.50;1.00;;;16.60;99.90;;;;;;5130904;27;20498;-59
2022/05/03 13:32:46;;;;;;;4.00;2.03;;;16.50;99.90;;;;;;5129642;27;20493;-61
2022/05/03 13:35:13;;;;;;;1.60;0.90;;;16.40;99.90;;;;;;5132380;27;20447;-61
2022/05/03 13:40:30;;;;;;;2.17;0.90;;;16.10;1.00;;;;;;5130010;27;20509;-60
2022/05/03 13:43:00;;;;;;;1.20;0.87;;;15.70;1.00;;;;;;5131626;27;20534;-60
2022/05/03 13:45:29;;;;;;;2.80;0.77;;;15.70;99.90;;;;;;5133351;27;20531;-61
2022/05/03 13:47:56;;;;;;;1.10;0.80;;;15.80;1.00;;;;;;5131855;27;20476;-60
2022/05/03 13:50:23;;;;;;;1.10;0.77;;;15.70;99.90;;;;;;5129832;27;20476;-60
2022/05/03 13:52:50;;;;;;;1.23;0.70;;;15.90;1.00;;;;;;5131135;27;20890;-60
2022/05/03 13:55:17;;;;;;;1.00;0.77;;;16.10;99.90;;;;;;5132375;27;20542;-61